sensor_id;sensor_type;location;lat;lon;timestamp;P1;durP1;ratioP1;P2;durP2;ratioP2
59854;SDS011;45732;52.850;6.896;2022-12-18T00:01:56;93.10;;;39.53;;
59854;SDS011;45732;52.850;6.896;2022-12-18T00:04:24;86.07;;;38.72;;
59854;SDS011;45732;52.850;6.896;2022-12-18T00:06:50;90.22;;;39.05;;
59854;SDS011;45732;52.850;6.896;2022-12-18T00:09:17;90.45;;;39.33;;
59854;SDS011;45732;52.850;6.896;2022-12-18T00:11:43;93.30;;;38.47;;
59854;SDS011;45732;52.850;6.896;2022-12-18T00:14:09;94.90;;;38.95;;
59854;SDS011;45732;52.850;6.896;2022-12-18T00:16:37;86.72;;;39.35;;
59854;SDS011;45732;52.850;6.896;2022-12-18T00:19:03;89.20;;;40.10;;
59854;SDS011;45732;52.850;6.896;2022-12-18T00:21:30;86.50;;;39.78;;
59854;SDS011;45732;52.850;6.896;2022-12-18T00:23:57;78.57;;;36.83;;
59854;SDS011;45732;52.850;6.896;2022-12-18T00:26:24;85.47;;;38.85;;
59854;SDS011;45732;52.850;6.896;2022-12-18T00:28:52;88.38;;;37.60;;
59854;SDS011;45732;52.850;6.896;2022-12-18T00:31:20;85.03;;;38.63;;
59854;SDS011;45732;52.850;6.896;2022-12-18T00:33:47;96.10;;;40.97;;
59854;SDS011;45732;52.850;6.896;2022-12-18T00:36:14;87.00;;;39.42;;
59854;SDS011;45732;52.850;6.896;2022-12-18T00:38:43;89.30;;;40.75;;
59854;SDS011;45732;52.850;6.896;2022-12-18T00:41:10;93.57;;;41.13;;
59854;SDS011;45732;52.850;6.896;2022-12-18T00:43:37;96.38;;;42.85;;
59854;SDS011;45732;52.850;6.896;2022-12-18T00:46:03;90.38;;;40.58;;
59854;SDS011;45732;52.850;6.896;2022-12-18T00:48:30;89.93;;;40.88;;
59854;SDS011;45732;52.850;6.896;2022-12-18T00:50:56;88.70;;;40.00;;
59854;SDS011;45732;52.850;6.896;2022-12-18T00:53:22;88.95;;;41.03;;
59854;SDS011;45732;52.850;6.896;2022-12-18T00:55:47;87.93;;;39.60;;
59854;SDS011;45732;52.850;6.896;2022-12-18T00:58:14;97.80;;;42.40;;
59854;SDS011;45732;52.850;6.896;2022-12-18T01:00:41;89.95;;;40.35;;
59854;SDS011;45732;52.850;6.896;2022-12-18T01:03:09;94.65;;;41.33;;
59854;SDS011;45732;52.850;6.896;2022-12-18T01:05:40;91.40;;;41.80;;
59854;SDS011;45732;52.850;6.896;2022-12-18T01:08:06;94.50;;;42.22;;
59854;SDS011;45732;52.850;6.896;2022-12-18T01:10:32;93.88;;;42.83;;
59854;SDS011;45732;52.850;6.896;2022-12-18T01:12:58;93.25;;;40.53;;
59854;SDS011;45732;52.850;6.896;2022-12-18T01:15:23;88.47;;;39.17;;
59854;SDS011;45732;52.850;6.896;2022-12-18T01:17:51;90.22;;;39.17;;
59854;SDS011;45732;52.850;6.896;2022-12-18T01:20:17;83.35;;;39.20;;
59854;SDS011;45732;52.850;6.896;2022-12-18T01:22:43;90.07;;;39.97;;
59854;SDS011;45732;52.850;6.896;2022-12-18T01:25:09;87.82;;;39.17;;
59854;SDS011;45732;52.850;6.896;2022-12-18T01:27:34;81.32;;;38.63;;
59854;SDS011;45732;52.850;6.896;2022-12-18T01:30:00;84.00;;;38.72;;
59854;SDS011;45732;52.850;6.896;2022-12-18T01:32:26;75.78;;;37.22;;
59854;SDS011;45732;52.850;6.896;2022-12-18T01:34:54;83.40;;;37.90;;
59854;SDS011;45732;52.850;6.896;2022-12-18T01:37:19;81.35;;;36.83;;
59854;SDS011;45732;52.850;6.896;2022-12-18T01:39:45;78.28;;;37.00;;
59854;SDS011;45732;52.850;6.896;2022-12-18T01:42:12;74.63;;;35.70;;
59854;SDS011;45732;52.850;6.896;2022-12-18T01:50:03;81.82;;;36.17;;
59854;SDS011;45732;52.850;6.896;2022-12-18T01:53:26;83.00;;;37.50;;
59854;SDS011;45732;52.850;6.896;2022-12-18T01:55:31;74.32;;;35.05;;
59854;SDS011;45732;52.850;6.896;2022-12-18T01:58:01;85.05;;;37.63;;
59854;SDS011;45732;52.850;6.896;2022-12-18T02:00:28;86.80;;;38.45;;
59854;SDS011;45732;52.850;6.896;2022-12-18T02:02:54;81.10;;;37.78;;
59854;SDS011;45732;52.850;6.896;2022-12-18T02:05:35;82.28;;;39.08;;
59854;SDS011;45732;52.850;6.896;2022-12-18T02:13:19;93.00;;;40.25;;
59854;SDS011;45732;52.850;6.896;2022-12-18T02:16:13;84.93;;;38.20;;
59854;SDS011;45732;52.850;6.896;2022-12-18T02:18:48;91.95;;;39.25;;
59854;SDS011;45732;52.850;6.896;2022-12-18T02:24:11;87.25;;;38.95;;
59854;SDS011;45732;52.850;6.896;2022-12-18T02:26:53;88.07;;;38.42;;
59854;SDS011;45732;52.850;6.896;2022-12-18T02:29:24;86.25;;;38.85;;
59854;SDS011;45732;52.850;6.896;2022-12-18T02:31:54;79.43;;;36.88;;
59854;SDS011;45732;52.850;6.896;2022-12-18T02:34:22;77.72;;;35.92;;
59854;SDS011;45732;52.850;6.896;2022-12-18T02:36:53;80.63;;;35.33;;
59854;SDS011;45732;52.850;6.896;2022-12-18T02:39:20;70.82;;;34.03;;
59854;SDS011;45732;52.850;6.896;2022-12-18T02:41:48;72.00;;;35.58;;
59854;SDS011;45732;52.850;6.896;2022-12-18T02:44:15;68.72;;;33.58;;
59854;SDS011;45732;52.850;6.896;2022-12-18T02:46:42;68.38;;;32.45;;
59854;SDS011;45732;52.850;6.896;2022-12-18T02:52:28;62.67;;;32.13;;
59854;SDS011;45732;52.850;6.896;2022-12-18T02:58:05;62.55;;;30.38;;
59854;SDS011;45732;52.850;6.896;2022-12-18T03:00:46;54.33;;;29.38;;
59854;SDS011;45732;52.850;6.896;2022-12-18T03:03:21;55.20;;;28.05;;
59854;SDS011;45732;52.850;6.896;2022-12-18T03:05:56;58.22;;;29.63;;
59854;SDS011;45732;52.850;6.896;2022-12-18T03:08:38;53.22;;;27.63;;
59854;SDS011;45732;52.850;6.896;2022-12-18T03:11:11;52.78;;;27.35;;
59854;SDS011;45732;52.850;6.896;2022-12-18T03:13:45;50.60;;;27.00;;
59854;SDS011;45732;52.850;6.896;2022-12-18T03:16:25;53.25;;;27.50;;
59854;SDS011;45732;52.850;6.896;2022-12-18T03:19:00;52.55;;;27.45;;
59854;SDS011;45732;52.850;6.896;2022-12-18T03:21:33;51.17;;;26.95;;
59854;SDS011;45732;52.850;6.896;2022-12-18T03:24:07;52.53;;;27.13;;
59854;SDS011;45732;52.850;6.896;2022-12-18T03:26:36;55.85;;;27.77;;
59854;SDS011;45732;52.850;6.896;2022-12-18T03:29:10;50.50;;;26.58;;
59854;SDS011;45732;52.850;6.896;2022-12-18T03:31:51;48.08;;;26.13;;
59854;SDS011;45732;52.850;6.896;2022-12-18T03:34:25;51.92;;;26.75;;
59854;SDS011;45732;52.850;6.896;2022-12-18T03:36:57;50.15;;;26.02;;
59854;SDS011;45732;52.850;6.896;2022-12-18T03:39:23;46.60;;;25.20;;
59854;SDS011;45732;52.850;6.896;2022-12-18T03:44:41;46.53;;;26.00;;
59854;SDS011;45732;52.850;6.896;2022-12-18T03:47:34;49.60;;;26.17;;
59854;SDS011;45732;52.850;6.896;2022-12-18T03:50:15;48.28;;;25.35;;
59854;SDS011;45732;52.850;6.896;2022-12-18T03:53:10;51.35;;;26.05;;
59854;SDS011;45732;52.850;6.896;2022-12-18T03:55:41;47.00;;;25.20;;
59854;SDS011;45732;52.850;6.896;2022-12-18T03:58:08;47.45;;;25.15;;
59854;SDS011;45732;52.850;6.896;2022-12-18T04:00:38;47.00;;;24.33;;
59854;SDS011;45732;52.850;6.896;2022-12-18T04:03:05;48.10;;;24.63;;
59854;SDS011;45732;52.850;6.896;2022-12-18T04:05:33;45.92;;;25.92;;
59854;SDS011;45732;52.850;6.896;2022-12-18T04:08:02;52.55;;;25.30;;
59854;SDS011;45732;52.850;6.896;2022-12-18T04:10:28;46.67;;;24.63;;
59854;SDS011;45732;52.850;6.896;2022-12-18T04:12:57;45.83;;;25.63;;
59854;SDS011;45732;52.850;6.896;2022-12-18T04:15:24;50.15;;;26.25;;
59854;SDS011;45732;52.850;6.896;2022-12-18T04:17:50;49.45;;;25.33;;
59854;SDS011;45732;52.850;6.896;2022-12-18T04:20:16;48.95;;;24.85;;
59854;SDS011;45732;52.850;6.896;2022-12-18T04:22:42;42.30;;;23.90;;
59854;SDS011;45732;52.850;6.896;2022-12-18T04:25:08;47.00;;;24.80;;
59854;SDS011;45732;52.850;6.896;2022-12-18T04:27:34;47.72;;;25.15;;
59854;SDS011;45732;52.850;6.896;2022-12-18T04:30:00;45.47;;;24.50;;
59854;SDS011;45732;52.850;6.896;2022-12-18T04:32:26;44.85;;;24.48;;
59854;SDS011;45732;52.850;6.896;2022-12-18T04:34:51;45.20;;;24.15;;
59854;SDS011;45732;52.850;6.896;2022-12-18T04:37:17;46.95;;;24.70;;
59854;SDS011;45732;52.850;6.896;2022-12-18T04:39:43;44.53;;;23.77;;
59854;SDS011;45732;52.850;6.896;2022-12-18T04:42:08;44.92;;;23.73;;
59854;SDS011;45732;52.850;6.896;2022-12-18T04:44:34;44.08;;;23.85;;
59854;SDS011;45732;52.850;6.896;2022-12-18T04:47:00;40.60;;;23.33;;
59854;SDS011;45732;52.850;6.896;2022-12-18T04:49:26;44.78;;;24.67;;
59854;SDS011;45732;52.850;6.896;2022-12-18T04:51:52;40.05;;;24.13;;
59854;SDS011;45732;52.850;6.896;2022-12-18T04:54:18;45.55;;;23.27;;
59854;SDS011;45732;52.850;6.896;2022-12-18T04:56:43;42.42;;;23.40;;
59854;SDS011;45732;52.850;6.896;2022-12-18T04:59:09;41.22;;;23.50;;
59854;SDS011;45732;52.850;6.896;2022-12-18T05:01:35;40.10;;;22.40;;
59854;SDS011;45732;52.850;6.896;2022-12-18T05:04:01;43.22;;;22.80;;
59854;SDS011;45732;52.850;6.896;2022-12-18T05:06:27;40.63;;;22.35;;
59854;SDS011;45732;52.850;6.896;2022-12-18T05:08:53;41.38;;;23.13;;
59854;SDS011;45732;52.850;6.896;2022-12-18T05:11:18;41.72;;;22.27;;
59854;SDS011;45732;52.850;6.896;2022-12-18T05:13:44;40.85;;;21.88;;
59854;SDS011;45732;52.850;6.896;2022-12-18T05:16:10;41.33;;;21.23;;
59854;SDS011;45732;52.850;6.896;2022-12-18T05:18:37;36.85;;;21.90;;
59854;SDS011;45732;52.850;6.896;2022-12-18T05:21:02;39.88;;;23.40;;
59854;SDS011;45732;52.850;6.896;2022-12-18T05:23:29;38.13;;;21.83;;
59854;SDS011;45732;52.850;6.896;2022-12-18T05:25:59;37.03;;;22.42;;
59854;SDS011;45732;52.850;6.896;2022-12-18T05:28:27;39.25;;;22.83;;
59854;SDS011;45732;52.850;6.896;2022-12-18T05:30:55;39.50;;;22.05;;
59854;SDS011;45732;52.850;6.896;2022-12-18T05:33:23;37.97;;;23.25;;
59854;SDS011;45732;52.850;6.896;2022-12-18T05:35:50;40.88;;;20.90;;
59854;SDS011;45732;52.850;6.896;2022-12-18T05:38:18;39.20;;;22.00;;
59854;SDS011;45732;52.850;6.896;2022-12-18T05:40:44;39.35;;;21.92;;
59854;SDS011;45732;52.850;6.896;2022-12-18T05:43:10;37.45;;;22.35;;
59854;SDS011;45732;52.850;6.896;2022-12-18T05:45:37;36.42;;;20.88;;
59854;SDS011;45732;52.850;6.896;2022-12-18T05:48:03;38.03;;;20.85;;
59854;SDS011;45732;52.850;6.896;2022-12-18T05:50:30;40.08;;;22.60;;
59854;SDS011;45732;52.850;6.896;2022-12-18T05:52:55;39.40;;;22.42;;
59854;SDS011;45732;52.850;6.896;2022-12-18T05:55:21;37.45;;;22.40;;
59854;SDS011;45732;52.850;6.896;2022-12-18T05:57:47;38.88;;;22.33;;
59854;SDS011;45732;52.850;6.896;2022-12-18T06:00:13;38.33;;;23.10;;
59854;SDS011;45732;52.850;6.896;2022-12-18T06:02:42;41.42;;;23.15;;
59854;SDS011;45732;52.850;6.896;2022-12-18T06:05:11;41.25;;;22.85;;
59854;SDS011;45732;52.850;6.896;2022-12-18T06:07:36;42.40;;;25.05;;
59854;SDS011;45732;52.850;6.896;2022-12-18T06:10:02;40.90;;;23.30;;
59854;SDS011;45732;52.850;6.896;2022-12-18T06:12:28;37.70;;;21.52;;
59854;SDS011;45732;52.850;6.896;2022-12-18T06:14:54;38.72;;;21.73;;
59854;SDS011;45732;52.850;6.896;2022-12-18T06:17:19;39.13;;;22.23;;
59854;SDS011;45732;52.850;6.896;2022-12-18T06:19:45;38.67;;;22.15;;
59854;SDS011;45732;52.850;6.896;2022-12-18T06:22:11;35.72;;;21.23;;
59854;SDS011;45732;52.850;6.896;2022-12-18T06:24:36;38.15;;;21.83;;
59854;SDS011;45732;52.850;6.896;2022-12-18T06:27:02;38.83;;;21.80;;
59854;SDS011;45732;52.850;6.896;2022-12-18T06:29:28;37.92;;;21.80;;
59854;SDS011;45732;52.850;6.896;2022-12-18T06:31:53;39.50;;;21.92;;
59854;SDS011;45732;52.850;6.896;2022-12-18T06:34:19;39.38;;;23.23;;
59854;SDS011;45732;52.850;6.896;2022-12-18T06:36:45;39.28;;;21.77;;
59854;SDS011;45732;52.850;6.896;2022-12-18T06:39:10;38.97;;;22.02;;
59854;SDS011;45732;52.850;6.896;2022-12-18T06:41:36;42.00;;;22.67;;
59854;SDS011;45732;52.850;6.896;2022-12-18T06:44:02;40.10;;;21.60;;
59854;SDS011;45732;52.850;6.896;2022-12-18T06:46:28;38.55;;;22.38;;
59854;SDS011;45732;52.850;6.896;2022-12-18T06:48:53;39.75;;;22.85;;
59854;SDS011;45732;52.850;6.896;2022-12-18T06:51:20;37.90;;;21.45;;
59854;SDS011;45732;52.850;6.896;2022-12-18T06:53:46;34.42;;;20.45;;
59854;SDS011;45732;52.850;6.896;2022-12-18T06:56:12;37.70;;;21.92;;
59854;SDS011;45732;52.850;6.896;2022-12-18T06:58:38;38.55;;;21.75;;
59854;SDS011;45732;52.850;6.896;2022-12-18T07:01:04;36.58;;;22.80;;
59854;SDS011;45732;52.850;6.896;2022-12-18T07:03:32;40.03;;;22.15;;
59854;SDS011;45732;52.850;6.896;2022-12-18T07:05:58;39.05;;;22.98;;
59854;SDS011;45732;52.850;6.896;2022-12-18T07:08:24;36.42;;;22.02;;
59854;SDS011;45732;52.850;6.896;2022-12-18T07:10:50;35.45;;;21.50;;
59854;SDS011;45732;52.850;6.896;2022-12-18T07:13:16;36.20;;;21.50;;
59854;SDS011;45732;52.850;6.896;2022-12-18T07:15:42;32.67;;;20.90;;
59854;SDS011;45732;52.850;6.896;2022-12-18T07:18:08;35.30;;;23.27;;
59854;SDS011;45732;52.850;6.896;2022-12-18T07:20:34;37.97;;;23.05;;
59854;SDS011;45732;52.850;6.896;2022-12-18T07:23:03;33.08;;;20.77;;
59854;SDS011;45732;52.850;6.896;2022-12-18T07:25:33;33.95;;;21.08;;
59854;SDS011;45732;52.850;6.896;2022-12-18T07:27:59;35.08;;;22.33;;
59854;SDS011;45732;52.850;6.896;2022-12-18T07:30:25;38.33;;;24.90;;
59854;SDS011;45732;52.850;6.896;2022-12-18T07:32:51;39.25;;;23.52;;
59854;SDS011;45732;52.850;6.896;2022-12-18T07:35:17;37.58;;;22.33;;
59854;SDS011;45732;52.850;6.896;2022-12-18T07:37:42;37.78;;;24.48;;
59854;SDS011;45732;52.850;6.896;2022-12-18T07:40:08;39.03;;;24.45;;
59854;SDS011;45732;52.850;6.896;2022-12-18T07:42:34;41.53;;;25.95;;
59854;SDS011;45732;52.850;6.896;2022-12-18T07:45:02;33.17;;;19.52;;
59854;SDS011;45732;52.850;6.896;2022-12-18T07:47:28;31.73;;;21.10;;
59854;SDS011;45732;52.850;6.896;2022-12-18T07:49:54;26.65;;;17.30;;
59854;SDS011;45732;52.850;6.896;2022-12-18T07:52:20;30.02;;;19.33;;
59854;SDS011;45732;52.850;6.896;2022-12-18T07:54:46;32.83;;;20.52;;
59854;SDS011;45732;52.850;6.896;2022-12-18T07:57:15;36.65;;;21.13;;
59854;SDS011;45732;52.850;6.896;2022-12-18T07:59:41;33.40;;;17.98;;
59854;SDS011;45732;52.850;6.896;2022-12-18T08:02:07;33.22;;;18.48;;
59854;SDS011;45732;52.850;6.896;2022-12-18T08:04:33;31.60;;;18.33;;
59854;SDS011;45732;52.850;6.896;2022-12-18T08:06:58;28.70;;;17.67;;
59854;SDS011;45732;52.850;6.896;2022-12-18T08:09:24;27.45;;;17.90;;
59854;SDS011;45732;52.850;6.896;2022-12-18T08:11:49;27.73;;;17.40;;
59854;SDS011;45732;52.850;6.896;2022-12-18T08:14:15;30.92;;;18.20;;
59854;SDS011;45732;52.850;6.896;2022-12-18T08:16:41;30.05;;;20.20;;
59854;SDS011;45732;52.850;6.896;2022-12-18T08:19:06;29.08;;;17.58;;
59854;SDS011;45732;52.850;6.896;2022-12-18T08:21:32;31.38;;;21.95;;
59854;SDS011;45732;52.850;6.896;2022-12-18T08:23:58;48.72;;;43.70;;
59854;SDS011;45732;52.850;6.896;2022-12-18T08:26:25;25.52;;;17.75;;
59854;SDS011;45732;52.850;6.896;2022-12-18T08:28:53;27.15;;;18.45;;
59854;SDS011;45732;52.850;6.896;2022-12-18T08:31:20;28.40;;;18.90;;
59854;SDS011;45732;52.850;6.896;2022-12-18T08:33:50;29.85;;;22.10;;
59854;SDS011;45732;52.850;6.896;2022-12-18T08:36:18;25.25;;;16.15;;
59854;SDS011;45732;52.850;6.896;2022-12-18T08:38:47;32.08;;;24.73;;
59854;SDS011;45732;52.850;6.896;2022-12-18T08:41:13;48.28;;;43.53;;
59854;SDS011;45732;52.850;6.896;2022-12-18T08:43:40;31.83;;;28.35;;
59854;SDS011;45732;52.850;6.896;2022-12-18T08:46:25;28.40;;;18.85;;
59854;SDS011;45732;52.850;6.896;2022-12-18T08:48:52;24.23;;;16.05;;
59854;SDS011;45732;52.850;6.896;2022-12-18T08:51:20;26.10;;;15.65;;
59854;SDS011;45732;52.850;6.896;2022-12-18T08:53:46;24.88;;;16.17;;
59854;SDS011;45732;52.850;6.896;2022-12-18T08:56:12;23.75;;;16.40;;
59854;SDS011;45732;52.850;6.896;2022-12-18T08:58:39;24.23;;;15.93;;
59854;SDS011;45732;52.850;6.896;2022-12-18T09:01:07;22.65;;;15.60;;
59854;SDS011;45732;52.850;6.896;2022-12-18T09:03:34;29.33;;;25.00;;
59854;SDS011;45732;52.850;6.896;2022-12-18T09:06:00;23.42;;;15.25;;
59854;SDS011;45732;52.850;6.896;2022-12-18T09:08:27;26.88;;;19.85;;
59854;SDS011;45732;52.850;6.896;2022-12-18T09:10:53;23.05;;;15.40;;
59854;SDS011;45732;52.850;6.896;2022-12-18T09:13:19;21.50;;;15.43;;
59854;SDS011;45732;52.850;6.896;2022-12-18T09:15:48;23.90;;;17.42;;
59854;SDS011;45732;52.850;6.896;2022-12-18T09:18:17;21.33;;;14.68;;
59854;SDS011;45732;52.850;6.896;2022-12-18T09:20:43;18.30;;;13.25;;
59854;SDS011;45732;52.850;6.896;2022-12-18T09:23:09;19.80;;;13.45;;
59854;SDS011;45732;52.850;6.896;2022-12-18T09:25:35;17.95;;;12.32;;
59854;SDS011;45732;52.850;6.896;2022-12-18T09:28:02;21.40;;;12.68;;
59854;SDS011;45732;52.850;6.896;2022-12-18T09:30:29;18.60;;;12.05;;
59854;SDS011;45732;52.850;6.896;2022-12-18T09:32:58;19.83;;;12.45;;
59854;SDS011;45732;52.850;6.896;2022-12-18T09:35:25;18.48;;;11.82;;
59854;SDS011;45732;52.850;6.896;2022-12-18T09:37:52;20.65;;;13.15;;
59854;SDS011;45732;52.850;6.896;2022-12-18T09:40:20;17.60;;;11.82;;
59854;SDS011;45732;52.850;6.896;2022-12-18T09:42:50;17.65;;;11.68;;
59854;SDS011;45732;52.850;6.896;2022-12-18T09:45:20;17.17;;;12.35;;
59854;SDS011;45732;52.850;6.896;2022-12-18T09:47:47;21.92;;;14.15;;
59854;SDS011;45732;52.850;6.896;2022-12-18T09:50:34;16.27;;;11.80;;
59854;SDS011;45732;52.850;6.896;2022-12-18T09:53:04;18.92;;;12.70;;
59854;SDS011;45732;52.850;6.896;2022-12-18T09:55:36;16.90;;;10.98;;
59854;SDS011;45732;52.850;6.896;2022-12-18T09:58:15;18.23;;;13.77;;
59854;SDS011;45732;52.850;6.896;2022-12-18T10:00:48;18.00;;;12.43;;
59854;SDS011;45732;52.850;6.896;2022-12-18T10:03:16;20.48;;;14.35;;
59854;SDS011;45732;52.850;6.896;2022-12-18T10:05:54;16.92;;;11.85;;
59854;SDS011;45732;52.850;6.896;2022-12-18T10:20:13;19.47;;;14.90;;
59854;SDS011;45732;52.850;6.896;2022-12-18T10:25:17;16.60;;;11.27;;
59854;SDS011;45732;52.850;6.896;2022-12-18T10:27:46;17.70;;;10.80;;
59854;SDS011;45732;52.850;6.896;2022-12-18T10:30:14;16.58;;;10.38;;
59854;SDS011;45732;52.850;6.896;2022-12-18T10:32:42;15.45;;;10.50;;
59854;SDS011;45732;52.850;6.896;2022-12-18T10:35:11;17.05;;;10.40;;
59854;SDS011;45732;52.850;6.896;2022-12-18T10:40:47;18.83;;;13.18;;
59854;SDS011;45732;52.850;6.896;2022-12-18T10:43:21;15.70;;;11.98;;
59854;SDS011;45732;52.850;6.896;2022-12-18T10:51:18;15.18;;;10.15;;
59854;SDS011;45732;52.850;6.896;2022-12-18T10:53:57;14.68;;;10.13;;
59854;SDS011;45732;52.850;6.896;2022-12-18T10:56:39;15.43;;;10.75;;
59854;SDS011;45732;52.850;6.896;2022-12-18T10:59:09;15.25;;;9.32;;
59854;SDS011;45732;52.850;6.896;2022-12-18T11:04:25;13.65;;;9.27;;
59854;SDS011;45732;52.850;6.896;2022-12-18T11:09:25;15.55;;;10.95;;
59854;SDS011;45732;52.850;6.896;2022-12-18T11:11:57;15.55;;;11.95;;
59854;SDS011;45732;52.850;6.896;2022-12-18T11:17:31;15.60;;;11.50;;
59854;SDS011;45732;52.850;6.896;2022-12-18T11:20:04;16.35;;;12.02;;
59854;SDS011;45732;52.850;6.896;2022-12-18T11:22:33;18.77;;;12.93;;
59854;SDS011;45732;52.850;6.896;2022-12-18T11:25:04;17.02;;;12.45;;
59854;SDS011;45732;52.850;6.896;2022-12-18T11:27:47;16.83;;;10.32;;
59854;SDS011;45732;52.850;6.896;2022-12-18T11:30:23;14.85;;;9.70;;
59854;SDS011;45732;52.850;6.896;2022-12-18T11:33:16;13.27;;;9.50;;
59854;SDS011;45732;52.850;6.896;2022-12-18T11:35:52;16.35;;;9.88;;
59854;SDS011;45732;52.850;6.896;2022-12-18T11:38:25;14.00;;;9.10;;
59854;SDS011;45732;52.850;6.896;2022-12-18T11:44:08;15.02;;;11.48;;
59854;SDS011;45732;52.850;6.896;2022-12-18T11:46:43;12.05;;;8.43;;
59854;SDS011;45732;52.850;6.896;2022-12-18T11:49:22;14.13;;;9.10;;
59854;SDS011;45732;52.850;6.896;2022-12-18T11:52:18;13.98;;;9.68;;
59854;SDS011;45732;52.850;6.896;2022-12-18T11:54:50;13.82;;;8.68;;
59854;SDS011;45732;52.850;6.896;2022-12-18T11:57:41;13.10;;;9.27;;
59854;SDS011;45732;52.850;6.896;2022-12-18T12:00:13;12.95;;;8.40;;
59854;SDS011;45732;52.850;6.896;2022-12-18T12:08:23;13.38;;;8.38;;
59854;SDS011;45732;52.850;6.896;2022-12-18T12:21:39;14.57;;;10.45;;
59854;SDS011;45732;52.850;6.896;2022-12-18T12:24:12;14.80;;;9.07;;
59854;SDS011;45732;52.850;6.896;2022-12-18T12:40:31;13.70;;;8.73;;
59854;SDS011;45732;52.850;6.896;2022-12-18T12:43:03;14.10;;;9.40;;
59854;SDS011;45732;52.850;6.896;2022-12-18T12:48:28;13.50;;;8.85;;
59854;SDS011;45732;52.850;6.896;2022-12-18T12:50:58;15.13;;;9.38;;
59854;SDS011;45732;52.850;6.896;2022-12-18T12:53:29;14.82;;;9.45;;
59854;SDS011;45732;52.850;6.896;2022-12-18T12:55:59;13.82;;;9.82;;
59854;SDS011;45732;52.850;6.896;2022-12-18T13:01:14;13.93;;;9.82;;
59854;SDS011;45732;52.850;6.896;2022-12-18T13:07:00;13.90;;;9.45;;
59854;SDS011;45732;52.850;6.896;2022-12-18T13:18:18;15.40;;;10.50;;
59854;SDS011;45732;52.850;6.896;2022-12-18T13:25:50;13.43;;;8.70;;
59854;SDS011;45732;52.850;6.896;2022-12-18T13:28:49;14.05;;;8.95;;
59854;SDS011;45732;52.850;6.896;2022-12-18T13:31:12;13.48;;;8.20;;
59854;SDS011;45732;52.850;6.896;2022-12-18T13:33:40;16.23;;;14.35;;
59854;SDS011;45732;52.850;6.896;2022-12-18T13:36:15;13.68;;;10.07;;
59854;SDS011;45732;52.850;6.896;2022-12-18T13:39:09;13.90;;;9.88;;
59854;SDS011;45732;52.850;6.896;2022-12-18T13:41:47;14.05;;;9.43;;
59854;SDS011;45732;52.850;6.896;2022-12-18T13:47:05;14.30;;;10.27;;
59854;SDS011;45732;52.850;6.896;2022-12-18T13:49:53;13.55;;;9.50;;
59854;SDS011;45732;52.850;6.896;2022-12-18T13:52:24;16.95;;;11.10;;
59854;SDS011;45732;52.850;6.896;2022-12-18T13:54:54;14.43;;;9.98;;
59854;SDS011;45732;52.850;6.896;2022-12-18T13:57:32;17.50;;;14.20;;
59854;SDS011;45732;52.850;6.896;2022-12-18T14:00:16;14.77;;;11.40;;
59854;SDS011;45732;52.850;6.896;2022-12-18T14:02:49;15.20;;;10.18;;
59854;SDS011;45732;52.850;6.896;2022-12-18T14:08:15;16.50;;;14.70;;
59854;SDS011;45732;52.850;6.896;2022-12-18T14:10:42;15.23;;;10.85;;
59854;SDS011;45732;52.850;6.896;2022-12-18T14:13:10;15.88;;;10.70;;
59854;SDS011;45732;52.850;6.896;2022-12-18T14:15:46;17.27;;;13.68;;
59854;SDS011;45732;52.850;6.896;2022-12-18T14:20:40;14.98;;;10.43;;
59854;SDS011;45732;52.850;6.896;2022-12-18T14:25:57;13.20;;;8.95;;
59854;SDS011;45732;52.850;6.896;2022-12-18T14:28:24;15.32;;;10.38;;
59854;SDS011;45732;52.850;6.896;2022-12-18T14:30:51;15.98;;;11.02;;
59854;SDS011;45732;52.850;6.896;2022-12-18T14:33:18;17.33;;;11.05;;
59854;SDS011;45732;52.850;6.896;2022-12-18T14:36:02;16.58;;;11.40;;
59854;SDS011;45732;52.850;6.896;2022-12-18T14:41:06;16.27;;;10.77;;
59854;SDS011;45732;52.850;6.896;2022-12-18T14:43:40;17.10;;;12.90;;
59854;SDS011;45732;52.850;6.896;2022-12-18T14:49:04;16.90;;;12.25;;
59854;SDS011;45732;52.850;6.896;2022-12-18T14:51:41;16.63;;;11.95;;
59854;SDS011;45732;52.850;6.896;2022-12-18T14:54:15;17.20;;;12.93;;
59854;SDS011;45732;52.850;6.896;2022-12-18T14:56:44;16.38;;;10.95;;
59854;SDS011;45732;52.850;6.896;2022-12-18T14:59:16;17.98;;;12.10;;
59854;SDS011;45732;52.850;6.896;2022-12-18T15:01:48;17.85;;;12.10;;
59854;SDS011;45732;52.850;6.896;2022-12-18T15:04:29;16.65;;;11.68;;
59854;SDS011;45732;52.850;6.896;2022-12-18T15:07:02;15.95;;;10.68;;
59854;SDS011;45732;52.850;6.896;2022-12-18T15:09:30;17.23;;;11.82;;
59854;SDS011;45732;52.850;6.896;2022-12-18T15:11:57;15.30;;;10.50;;
59854;SDS011;45732;52.850;6.896;2022-12-18T15:14:31;18.58;;;13.90;;
59854;SDS011;45732;52.850;6.896;2022-12-18T15:17:03;16.38;;;11.20;;
59854;SDS011;45732;52.850;6.896;2022-12-18T15:19:40;16.70;;;11.82;;
59854;SDS011;45732;52.850;6.896;2022-12-18T15:22:50;16.80;;;12.45;;
59854;SDS011;45732;52.850;6.896;2022-12-18T15:25:00;16.53;;;12.37;;
59854;SDS011;45732;52.850;6.896;2022-12-18T15:27:31;17.50;;;12.98;;
59854;SDS011;45732;52.850;6.896;2022-12-18T15:32:35;17.20;;;11.48;;
59854;SDS011;45732;52.850;6.896;2022-12-18T15:35:23;17.85;;;12.55;;
59854;SDS011;45732;52.850;6.896;2022-12-18T15:37:52;17.30;;;11.70;;
59854;SDS011;45732;52.850;6.896;2022-12-18T15:40:19;18.67;;;14.10;;
59854;SDS011;45732;52.850;6.896;2022-12-18T15:42:47;17.30;;;13.02;;
59854;SDS011;45732;52.850;6.896;2022-12-18T15:45:32;17.83;;;12.45;;
59854;SDS011;45732;52.850;6.896;2022-12-18T15:47:58;16.13;;;11.70;;
59854;SDS011;45732;52.850;6.896;2022-12-18T15:50:24;17.48;;;11.98;;
59854;SDS011;45732;52.850;6.896;2022-12-18T15:52:51;17.85;;;13.68;;
59854;SDS011;45732;52.850;6.896;2022-12-18T15:55:19;17.95;;;15.30;;
59854;SDS011;45732;52.850;6.896;2022-12-18T15:58:06;15.93;;;11.02;;
59854;SDS011;45732;52.850;6.896;2022-12-18T16:00:33;20.27;;;12.85;;
59854;SDS011;45732;52.850;6.896;2022-12-18T16:03:01;16.90;;;11.75;;
59854;SDS011;45732;52.850;6.896;2022-12-18T16:05:28;17.35;;;12.48;;
59854;SDS011;45732;52.850;6.896;2022-12-18T16:07:54;14.88;;;11.15;;
59854;SDS011;45732;52.850;6.896;2022-12-18T16:10:20;15.40;;;10.88;;
59854;SDS011;45732;52.850;6.896;2022-12-18T16:12:46;18.77;;;12.73;;
59854;SDS011;45732;52.850;6.896;2022-12-18T16:15:12;15.50;;;11.25;;
59854;SDS011;45732;52.850;6.896;2022-12-18T16:17:41;16.63;;;11.68;;
59854;SDS011;45732;52.850;6.896;2022-12-18T16:20:18;18.23;;;12.65;;
59854;SDS011;45732;52.850;6.896;2022-12-18T16:22:45;19.98;;;17.83;;
59854;SDS011;45732;52.850;6.896;2022-12-18T16:25:19;18.73;;;12.98;;
59854;SDS011;45732;52.850;6.896;2022-12-18T16:27:48;17.42;;;14.98;;
59854;SDS011;45732;52.850;6.896;2022-12-18T16:30:15;18.73;;;13.15;;
59854;SDS011;45732;52.850;6.896;2022-12-18T16:32:41;16.92;;;12.60;;
59854;SDS011;45732;52.850;6.896;2022-12-18T16:35:11;17.63;;;12.40;;
59854;SDS011;45732;52.850;6.896;2022-12-18T16:37:37;19.27;;;14.50;;
59854;SDS011;45732;52.850;6.896;2022-12-18T16:40:04;18.98;;;13.27;;
59854;SDS011;45732;52.850;6.896;2022-12-18T16:42:30;15.52;;;10.48;;
59854;SDS011;45732;52.850;6.896;2022-12-18T16:44:56;16.98;;;11.75;;
59854;SDS011;45732;52.850;6.896;2022-12-18T16:47:21;17.77;;;11.85;;